Terminal Aerodrome Forecast
Issued by NWS Sterling, VA

Current Version | Previous Version | Graphics & Text | Print | Product List | Glossary On
Versions: 1 2 3 4 5 6 7 8 9 10 11 12 13 14 15 16 17 18 19 20 21 22
000
FTUS41 KLWX 131700
TAFDCA
TAF
KDCA 131720Z 1318/1418 32004KT 3SM -RA BR OVC025
     FM132100 33005KT P6SM OVC025
     FM132200 33005KT P6SM OVC050
     FM140000 33005KT P6SM SCT250=

USA.gov is the U.S. government's official web portal to all federal, state and local government web resources and services.